Time;durP1;ratioP1;P1;durP2;ratioP2;P2;SDS_P1;SDS_P2;PMS_P1;PMS_P2;Temp;Humidity;BMP_temperature;BMP_pressure;BME280_temperature;BME280_humidity;BME280_pressure;Samples;Min_cycle;Max_cycle;Signal;HPM_P1;HPM_P2
2023/04/28 00:02:37;;;;;;;4.90;4.20;;;;;;;11.10;52.11;99252.81;10369512;28;20251;-65
2023/04/28 00:07:39;;;;;;;5.83;4.23;;;;;;;11.24;52.10;99277.81;10360751;28;20231;-65
2023/04/28 00:12:41;;;;;;;10.53;4.23;;;;;;;12.52;49.80;99311.81;10374302;28;20220;-66
2023/04/28 00:17:43;;;;;;;5.17;3.80;;;;;;;12.86;49.28;99332.19;10370091;28;20518;-65
2023/04/28 00:22:44;;;;;;;5.80;3.80;;;;;;;12.78;49.39;99355.75;10370085;28;20802;-66
2023/04/28 00:27:46;;;;;;;4.57;3.90;;;;;;;11.74;50.79;99318.59;10376518;28;20224;-66
2023/04/28 00:32:47;;;;;;;4.40;3.80;;;;;;;11.81;51.15;99334.66;10361996;28;20218;-66
2023/04/28 00:37:49;;;;;;;5.50;4.30;;;;;;;12.69;49.15;99321.06;10366335;28;20492;-66
2023/04/28 00:42:51;;;;;;;7.47;4.30;;;;;;;13.63;47.81;99345.75;10367628;28;20715;-66
2023/04/28 00:47:54;;;;;;;9.30;4.10;;;;;;;12.77;48.69;99319.19;10375015;28;20232;-66
2023/04/28 00:52:55;;;;;;;4.73;4.23;;;;;;;12.16;50.15;99329.97;10362820;28;20338;-68
2023/04/28 00:57:58;;;;;;;4.63;4.23;;;;;;;11.67;51.03;99328.44;10366159;28;20209;-65
2023/04/28 01:03:00;;;;;;;5.37;4.37;;;;;;;12.13;50.52;99348.31;10366867;28;20255;-66
2023/04/28 01:08:02;;;;;;;6.20;4.07;;;;;;;13.27;48.26;99357.06;10368132;28;20221;-66
2023/04/28 01:13:03;;;;;;;6.93;4.17;;;;;;;13.86;47.68;99382.03;10358256;28;20243;-66
2023/04/28 01:18:06;;;;;;;4.03;3.63;;;;;;;13.53;46.48;99323.06;10374752;28;20700;-66
2023/04/28 01:23:15;;;;;;;5.83;3.90;;;;;;;13.35;47.46;99339.91;10367008;28;20332;-67
2023/04/28 01:28:17;;;;;;;5.40;3.80;;;;;;;14.81;45.60;99375.72;10364829;28;20251;-66
2023/04/28 01:33:18;;;;;;;4.60;4.10;;;;;;;14.64;45.89;99324.28;10361225;28;20308;-66
2023/04/28 01:38:20;;;;;;;6.90;4.50;;;;;;;14.32;46.83;99327.06;10357141;28;20329;-66
2023/04/28 01:43:21;;;;;;;9.63;4.57;;;;;;;14.83;45.35;99289.34;10363068;28;20236;-66
2023/04/28 01:48:23;;;;;;;5.37;4.20;;;;;;;11.86;50.96;99294.69;10350456;28;20233;-66
2023/04/28 01:53:24;;;;;;;6.33;4.77;;;;;;;12.95;48.43;99348.06;10356669;28;20902;-66
2023/04/28 01:58:26;;;;;;;7.20;4.73;;;;;;;12.13;49.89;99375.13;10360100;28;20209;-66
2023/04/28 02:03:28;;;;;;;6.33;4.63;;;;;;;11.88;51.60;99372.19;10360879;28;20522;-66
2023/04/28 02:08:30;;;;;;;6.70;5.00;;;;;;;11.19;52.45;99344.56;10364814;28;20320;-66
2023/04/28 02:13:32;;;;;;;7.97;5.30;;;;;;;11.86;50.68;99377.78;10360806;28;20270;-66
2023/04/28 02:18:35;;;;;;;6.40;5.10;;;;;;;11.51;51.43;99367.13;10373204;28;20621;-66
2023/04/28 02:23:36;;;;;;;9.20;5.13;;;;;;;13.25;47.61;99322.34;10365482;28;20581;-65
2023/04/28 02:28:38;;;;;;;6.10;5.00;;;;;;;13.38;47.71;99324.19;10365448;28;20278;-65
2023/04/28 02:33:41;;;;;;;5.83;5.23;;;;;;;14.10;46.01;99333.88;10354430;28;20241;-65
2023/04/28 02:38:43;;;;;;;7.93;5.00;;;;;;;16.27;43.72;99428.16;10356524;28;20239;-66
2023/04/28 02:43:44;;;;;;;6.73;4.70;;;;;;;15.80;44.29;99364.84;10359211;28;20228;-66
2023/04/28 02:48:46;;;;;;;6.03;4.60;;;;;;;15.63;45.18;99344.97;10356862;28;20849;-67
2023/04/28 02:53:47;;;;;;;5.53;4.93;;;;;;;15.77;46.03;99354.50;10358289;28;20266;-69
2023/04/28 02:58:49;;;;;;;6.33;5.00;;;;;;;16.66;45.10;99361.03;10358688;28;20690;-65
2023/04/28 03:03:51;;;;;;;5.97;5.37;;;;;;;14.24;47.75;99243.13;10357543;28;20241;-68
2023/04/28 03:08:53;;;;;;;9.30;6.03;;;;;;;14.62;48.06;99299.47;10357132;28;20236;-66
2023/04/28 03:13:55;;;;;;;7.13;6.03;;;;;;;14.86;48.58;99270.84;10366132;28;20229;-65
2023/04/28 03:18:57;;;;;;;6.83;5.93;;;;;;;15.67;47.02;99249.91;10364966;28;20409;-67
2023/04/28 03:23:59;;;;;;;7.57;5.97;;;;;;;15.98;46.65;99266.84;10365983;28;20649;-66
2023/04/28 03:29:02;;;;;;;6.87;5.13;;;;;;;13.61;51.51;99320.94;10356852;28;20429;-70
2023/04/28 03:34:04;;;;;;;9.57;5.77;;;;;;;12.99;52.25;99266.03;10360882;28;20225;-68
2023/04/28 03:39:06;;;;;;;8.43;5.90;;;;;;;12.66;52.82;99283.91;10355798;28;20284;-68
2023/04/28 03:44:08;;;;;;;6.83;5.30;;;;;;;12.34;54.26;99304.38;10354108;28;20685;-65
2023/04/28 03:49:09;;;;;;;10.93;5.80;;;;;;;14.03;51.89;99296.25;10368306;28;20306;-65
2023/04/28 03:54:11;;;;;;;6.80;6.10;;;;;;;13.95;51.13;99289.28;10372762;28;20528;-68
2023/04/28 03:59:12;;;;;;;7.13;5.70;;;;;;;14.01;50.65;99298.34;10366206;28;20205;-66
2023/04/28 04:04:14;;;;;;;8.90;6.10;;;;;;;15.22;48.75;99300.66;10364713;28;20237;-66
2023/04/28 04:09:17;;;;;;;6.90;5.93;;;;;;;14.51;50.33;99298.34;10367498;28;20507;-66
2023/04/28 04:14:19;;;;;;;6.43;5.83;;;;;;;15.45;47.49;99306.19;10372288;28;20246;-66
2023/04/28 04:19:22;;;;;;;6.53;5.83;;;;;;;13.18;52.17;99321.53;10369485;28;20825;-66
2023/04/28 04:24:24;;;;;;;12.20;6.13;;;;;;;12.58;52.93;99264.53;10372714;28;20237;-66
2023/04/28 04:29:26;;;;;;;7.20;5.63;;;;;;;13.33;52.27;99286.38;10359063;28;20216;-65
2023/04/28 04:34:27;;;;;;;7.50;5.80;;;;;;;12.26;54.07;99227.59;10354234;28;20236;-66
2023/04/28 04:39:29;;;;;;;6.90;5.60;;;;;;;12.88;53.55;99299.75;10360263;28;20212;-66
2023/04/28 04:44:30;;;;;;;7.87;6.17;;;;;;;12.82;53.04;99273.75;10367432;28;20235;-66
2023/04/28 04:49:32;;;;;;;7.67;5.93;;;;;;;13.66;51.20;99294.22;10359541;28;20216;-66
2023/04/28 04:54:34;;;;;;;7.40;6.00;;;;;;;13.35;52.24;99280.78;10356861;28;20696;-65
2023/04/28 04:59:35;;;;;;;8.00;5.90;;;;;;;12.86;53.75;99305.34;10369987;28;20922;-65
2023/04/28 05:04:37;;;;;;;6.47;5.60;;;;;;;12.96;53.15;99277.19;10368688;28;20926;-66
2023/04/28 05:09:39;;;;;;;8.87;6.60;;;;;;;13.37;52.94;99286.78;10366712;28;20210;-66
2023/04/28 05:14:40;;;;;;;9.40;6.37;;;;;;;13.42;53.46;99281.56;10358163;28;20232;-66
2023/04/28 05:19:42;;;;;;;7.53;5.43;;;;;;;13.47;54.32;99305.94;10360862;28;20220;-67
2023/04/28 05:24:44;;;;;;;6.03;4.93;;;;;;;13.00;55.62;99297.22;10357095;28;20236;-66
2023/04/28 05:29:45;;;;;;;6.17;4.90;;;;;;;13.34;55.75;99300.63;10364785;28;20699;-66
2023/04/28 05:34:47;;;;;;;5.67;4.60;;;;;;;12.51;57.76;99281.44;10366647;28;20225;-68
2023/04/28 05:39:49;;;;;;;5.60;4.73;;;;;;;13.11;57.02;99277.78;10362713;28;20820;-68
2023/04/28 05:44:50;;;;;;;5.43;4.60;;;;;;;12.94;58.14;99285.50;10358406;28;20658;-67
2023/04/28 05:49:52;;;;;;;8.27;4.63;;;;;;;12.70;59.54;99278.94;10352935;28;20380;-67
2023/04/28 05:54:53;;;;;;;4.37;3.90;;;;;;;11.86;60.29;99218.78;10365078;28;20234;-67
2023/04/28 05:59:55;;;;;;;4.40;4.00;;;;;;;12.41;60.48;99270.28;10360732;28;20449;-66
2023/04/28 06:04:56;;;;;;;5.43;4.63;;;;;;;12.38;61.09;99265.34;10358333;28;20237;-67
2023/04/28 06:09:58;;;;;;;8.90;5.50;;;;;;;12.72;60.46;99274.16;10367302;28;20216;-66
2023/04/28 06:15:00;;;;;;;4.70;4.30;;;;;;;12.37;61.93;99277.94;10364102;28;20230;-68
2023/04/28 06:20:02;;;;;;;5.77;4.30;;;;;;;13.03;59.95;99307.56;10357987;28;20217;-68
2023/04/28 06:25:04;;;;;;;5.13;4.63;;;;;;;13.25;60.75;99332.28;10362783;28;20278;-67
2023/04/28 06:30:06;;;;;;;5.10;4.03;;;;;;;13.08;60.02;99315.81;10358754;28;20209;-68
2023/04/28 06:35:08;;;;;;;6.83;4.50;;;;;;;12.17;62.32;99258.38;10363256;28;20229;-68
2023/04/28 06:40:10;;;;;;;5.30;4.33;;;;;;;13.09;61.49;99329.03;10362470;28;20199;-66
2023/04/28 06:45:12;;;;;;;5.10;4.50;;;;;;;14.24;58.89;99415.34;10350626;28;20226;-66
2023/04/28 06:50:13;;;;;;;5.87;4.40;;;;;;;13.82;58.31;99354.75;10358721;28;20213;-67
2023/04/28 06:55:16;;;;;;;6.57;4.47;;;;;;;13.64;60.58;99342.00;10359348;28;20225;-67
2023/04/28 07:00:18;;;;;;;4.57;4.13;;;;;;;13.00;61.96;99281.94;10365220;28;20217;-66
2023/04/28 07:05:19;;;;;;;5.10;4.50;;;;;;;13.62;60.34;99341.41;10378986;28;20758;-67
2023/04/28 07:10:21;;;;;;;5.03;4.43;;;;;;;13.45;60.29;99324.97;10378276;28;20214;-67
2023/04/28 07:15:23;;;;;;;6.13;4.73;;;;;;;13.58;60.56;99340.22;10380868;28;20220;-67
2023/04/28 07:20:25;;;;;;;5.30;4.73;;;;;;;14.14;59.75;99391.63;10380397;28;20204;-67
2023/04/28 07:25:26;;;;;;;6.10;4.90;;;;;;;13.48;60.95;99340.66;10384650;28;20229;-67
2023/04/28 07:30:28;;;;;;;7.77;5.93;;;;;;;12.97;61.31;99290.41;10388871;28;20603;-67
2023/04/28 07:35:30;;;;;;;6.40;5.60;;;;;;;14.61;59.35;99421.69;10383178;28;20610;-66
2023/04/28 07:40:31;;;;;;;7.03;6.23;;;;;;;14.12;60.01;99381.06;10386095;28;20540;-66
2023/04/28 07:45:37;;;;;;;6.90;6.20;;;;;;;15.13;57.62;99453.75;10388856;28;20225;-65
2023/04/28 07:50:39;;;;;;;7.93;6.27;;;;;;;14.13;59.41;99354.97;10377020;28;20832;-66
2023/04/28 07:55:42;;;;;;;6.10;5.50;;;;;;;14.53;58.89;99397.75;10382111;28;20224;-66
2023/04/28 08:00:43;;;;;;;5.93;5.33;;;;;;;14.03;60.90;99353.56;10377195;28;20216;-66
2023/04/28 08:05:45;;;;;;;6.57;5.87;;;;;;;14.88;59.05;99397.22;10376710;28;20228;-67
2023/04/28 08:10:48;;;;;;;6.10;5.50;;;;;;;14.89;59.48;99417.75;10383601;28;20212;-66
2023/04/28 08:15:50;;;;;;;7.50;5.97;;;;;;;14.20;61.13;99364.63;10378417;28;20294;-66
2023/04/28 08:20:52;;;;;;;7.73;5.77;;;;;;;14.12;61.37;99366.78;10383607;28;20631;-67
2023/04/28 08:25:54;;;;;;;8.70;6.57;;;;;;;14.36;59.56;99379.44;10375905;28;20244;-66
2023/04/28 08:30:56;;;;;;;7.73;6.90;;;;;;;15.02;59.14;99419.50;10387292;28;20205;-66
2023/04/28 08:35:58;;;;;;;6.93;6.23;;;;;;;15.24;59.35;99446.84;10382970;28;20243;-67
2023/04/28 08:41:03;;;;;;;6.87;6.10;;;;;;;14.48;60.99;99384.13;10381279;28;20598;-66
2023/04/28 08:46:06;;;;;;;9.73;8.40;;;;;;;14.76;61.22;99414.09;10379210;28;20733;-66
2023/04/28 08:51:08;;;;;;;7.93;7.13;;;;;;;14.34;61.01;99349.22;10391522;28;20239;-66
2023/04/28 08:56:13;;;;;;;9.20;7.37;;;;;;;15.69;58.65;99471.66;10382034;28;20511;-66
2023/04/28 09:01:15;;;;;;;9.07;7.70;;;;;;;14.52;62.46;99393.38;10382955;28;20217;-66
2023/04/28 09:06:17;;;;;;;8.97;6.87;;;;;;;14.99;61.25;99436.91;10381540;28;20250;-66
2023/04/28 09:11:19;;;;;;;8.47;6.30;;;;;;;15.47;60.50;99468.56;10382782;28;20253;-66
2023/04/28 09:16:21;;;;;;;8.23;6.63;;;;;;;14.68;61.61;99397.41;10387448;28;20231;-66
2023/04/28 09:21:23;;;;;;;8.07;6.53;;;;;;;14.95;62.49;99411.47;10384595;28;20257;-66
2023/04/28 09:26:24;;;;;;;7.10;6.03;;;;;;;16.14;59.12;99485.81;10372579;28;20271;-66
2023/04/28 09:31:27;;;;;;;8.50;6.30;;;;;;;14.58;62.26;99325.22;10372005;28;20749;-65
2023/04/28 09:36:29;;;;;;;7.73;6.30;;;;;;;15.72;61.15;99443.38;10376583;28;20607;-66
2023/04/28 09:41:42;;;;;;;7.70;6.80;;;;;;;15.51;62.00;99417.69;10375899;28;20335;-66
2023/04/28 09:46:45;;;;;;;6.33;5.67;;;;;;;15.48;61.69;99385.78;10384397;28;20229;-66
2023/04/28 09:51:46;;;;;;;6.00;5.40;;;;;;;15.35;62.41;99388.66;10377685;28;20212;-66
2023/04/28 09:56:49;;;;;;;7.00;5.70;;;;;;;15.79;60.56;99421.72;10387599;28;20228;-69
2023/04/28 10:01:51;;;;;;;7.33;5.40;;;;;;;15.19;62.74;99376.59;10377693;28;20217;-66
2023/04/28 10:06:55;;;;;;;5.93;5.27;;;;;;;14.29;64.04;99284.47;10370397;28;20275;-66
2023/04/28 10:11:58;;;;;;;5.50;5.00;;;;;;;14.50;64.63;99358.59;10379327;28;20356;-66
2023/04/28 10:17:02;;;;;;;6.03;4.90;;;;;;;14.44;64.99;99339.81;10374168;28;20408;-67
2023/04/28 10:22:10;;;;;;;6.30;5.10;;;;;;;15.45;62.24;99414.03;10379621;28;20223;-66
2023/04/28 10:27:12;;;;;;;5.37;4.87;;;;;;;15.86;61.39;99388.22;10385826;28;20728;-66
2023/04/28 10:32:18;;;;;;;5.97;5.37;;;;;;;15.80;62.13;99396.41;10379529;28;20715;-67
2023/04/28 10:37:59;;;;;;;6.07;5.47;;;;;;;14.91;64.04;99307.88;10377016;28;20325;-69
2023/04/28 10:43:01;;;;;;;7.23;5.53;;;;;;;15.52;62.09;99339.28;10377536;28;20208;-67
2023/04/28 10:48:05;;;;;;;6.57;5.80;;;;;;;15.10;63.87;99323.00;10386199;28;20277;-67
2023/04/28 10:53:06;;;;;;;6.30;5.43;;;;;;;16.41;61.15;99400.69;10373396;28;20640;-67
2023/04/28 10:58:14;;;;;;;6.67;5.53;;;;;;;16.65;60.96;99425.06;10383472;28;20208;-67
2023/04/28 11:06:40;;;;;;;5.90;5.27;;;;;;;17.07;58.17;99162.75;10419664;28;21199;-68
2023/04/28 11:12:09;;;;;;;6.83;5.43;;;;;;;17.27;57.13;99162.28;10411918;28;22079;-68
2023/04/28 11:17:16;;;;;;;5.07;4.57;;;;;;;17.05;57.19;99110.03;10419451;28;20224;-68
2023/04/28 11:22:20;;;;;;;6.10;5.50;;;;;;;19.10;54.28;99272.78;10424398;28;20412;-68
2023/04/28 11:27:25;;;;;;;5.97;5.47;;;;;;;19.88;52.85;99220.88;10411930;28;20223;-68
2023/04/28 11:32:32;;;;;;;5.80;5.20;;;;;;;19.91;52.82;99198.66;10418803;28;20207;-68
2023/04/28 11:37:34;;;;;;;5.80;5.20;;;;;;;18.21;55.25;99093.09;10414064;28;20475;-67
2023/04/28 11:42:36;;;;;;;9.43;5.90;;;;;;;18.62;55.78;99104.44;10414876;28;20217;-68
2023/04/28 11:47:37;;;;;;;5.53;5.03;;;;;;;18.76;54.62;99102.16;10424680;28;20232;-68
2023/04/28 11:52:49;;;;;;;7.40;5.10;;;;;;;18.02;55.14;99057.41;10413609;28;20205;-68
2023/04/28 11:58:16;;;;;;;4.57;4.10;;;;;;;15.69;60.96;99074.38;10416323;28;20239;-69
2023/04/28 12:03:18;;;;;;;5.87;4.23;;;;;;;18.30;56.35;99147.66;10410079;28;20645;-69
2023/04/28 12:08:29;;;;;;;5.43;4.70;;;;;;;18.68;55.33;99166.81;10417173;28;20216;-69
2023/04/28 12:13:30;;;;;;;5.77;5.17;;;;;;;17.46;58.38;99108.81;10414618;28;20225;-69
2023/04/28 12:18:35;;;;;;;6.70;5.00;;;;;;;16.37;60.61;99075.53;10394822;28;20212;-69
2023/04/28 12:23:38;;;;;;;5.43;4.93;;;;;;;17.21;59.24;99087.59;10384247;28;20232;-69
2023/04/28 12:28:42;;;;;;;5.53;4.03;;;;;;;17.51;59.76;99148.63;10389095;28;20353;-68
2023/04/28 12:33:44;;;;;;;5.67;4.33;;;;;;;18.17;57.56;99129.88;10377386;28;20239;-68
2023/04/28 12:38:47;;;;;;;5.17;4.70;;;;;;;17.75;58.26;99078.13;10381474;28;20200;-69
2023/04/28 12:43:49;;;;;;;4.47;4.07;;;;;;;18.84;55.59;99149.63;10381747;28;20240;-69
2023/04/28 12:48:51;;;;;;;5.97;4.30;;;;;;;17.58;58.64;99084.38;10398163;28;20408;-69
2023/04/28 12:53:53;;;;;;;4.27;3.90;;;;;;;19.88;54.04;99179.34;10392539;28;20525;-69
2023/04/28 12:58:54;;;;;;;4.93;4.43;;;;;;;19.61;54.97;99165.88;10385372;28;20600;-69
2023/04/28 13:03:56;;;;;;;4.90;4.40;;;;;;;19.49;54.79;99164.09;10379553;28;20243;-69
2023/04/28 13:08:58;;;;;;;5.00;4.60;;;;;;;17.59;57.82;99017.56;10387301;28;21701;-68
2023/04/28 13:13:59;;;;;;;4.40;4.00;;;;;;;18.89;56.37;99132.63;10376516;28;20217;-69
2023/04/28 13:19:03;;;;;;;4.77;3.80;;;;;;;18.27;57.02;99112.91;10384073;28;20592;-69
2023/04/28 13:24:04;;;;;;;5.77;3.50;;;;;;;17.59;60.03;99167.16;10385221;28;20239;-69
2023/04/28 13:29:08;;;;;;;4.13;3.70;;;;;;;18.75;56.25;99129.50;10380345;28;20205;-69
2023/04/28 13:34:14;;;;;;;4.10;3.17;;;;;;;18.31;57.25;99133.06;10382292;28;20228;-69
2023/04/28 13:39:18;;;;;;;4.97;3.73;;;;;;;18.90;55.90;99126.13;10384026;28;20678;-69
2023/04/28 13:44:21;;;;;;;3.87;3.30;;;;;;;17.95;57.42;99081.13;10374348;28;20385;-69
2023/04/28 13:49:23;;;;;;;4.37;3.23;;;;;;;18.94;55.79;99105.59;10379318;28;20355;-68
2023/04/28 13:54:24;;;;;;;3.80;3.40;;;;;;;19.36;55.25;99129.28;10376497;28;20221;-67
2023/04/28 13:59:26;;;;;;;5.17;3.10;;;;;;;18.00;56.92;99035.19;10378071;28;20510;-69
2023/04/28 14:04:27;;;;;;;4.33;2.70;;;;;;;18.50;57.50;99075.84;10376447;28;20529;-66
2023/04/28 14:09:31;;;;;;;2.67;2.47;;;;;;;19.21;56.01;99092.00;10376676;28;20547;-67
2023/04/28 14:14:33;;;;;;;2.53;2.33;;;;;;;19.02;55.68;99053.63;10380137;28;20228;-66
2023/04/28 14:19:34;;;;;;;2.07;1.80;;;;;;;20.53;53.58;99084.06;10379595;28;20205;-66
2023/04/28 14:24:36;;;;;;;2.00;1.90;;;;;;;19.87;54.46;99041.97;10379387;28;20484;-66
2023/04/28 14:29:38;;;;;;;2.00;1.90;;;;;;;20.45;52.80;99053.63;10380296;28;20209;-68
2023/04/28 14:34:40;;;;;;;2.00;1.90;;;;;;;20.23;53.46;99048.41;10373939;28;20595;-66
2023/04/28 14:39:43;;;;;;;4.03;2.93;;;;;;;20.28;52.28;98966.91;10382679;28;20219;-69
2023/04/28 14:44:45;;;;;;;2.97;2.40;;;;;;;20.99;51.21;98956.38;10377384;28;20828;-66
2023/04/28 14:49:47;;;;;;;2.17;2.07;;;;;;;19.55;54.45;99019.31;10379113;28;20204;-67
2023/04/28 14:54:49;;;;;;;2.13;1.93;;;;;;;18.34;56.40;98975.47;10377056;28;20783;-68
2023/04/28 14:59:51;;;;;;;2.33;2.10;;;;;;;19.90;53.81;98993.38;10378292;28;21398;-67
2023/04/28 15:04:54;;;;;;;2.83;2.63;;;;;;;19.46;54.94;98980.13;10371646;28;20240;-69
2023/04/28 15:09:58;;;;;;;2.60;2.27;;;;;;;20.35;53.17;98946.84;10377195;28;20455;-68
2023/04/28 15:15:00;;;;;;;4.67;3.30;;;;;;;20.96;52.19;98956.91;10379571;28;20283;-68
2023/04/28 15:20:02;;;;;;;3.40;3.10;;;;;;;19.39;54.37;98960.56;10377270;28;20231;-68
2023/04/28 15:25:04;;;;;;;3.23;2.83;;;;;;;18.73;56.87;98985.31;10378375;28;20232;-68
2023/04/28 15:30:08;;;;;;;6.80;3.47;;;;;;;18.33;58.04;98978.44;10376614;28;20334;-70
2023/04/28 15:35:11;;;;;;;6.97;3.40;;;;;;;18.55;57.58;98979.19;10378724;28;20224;-67
2023/04/28 15:40:15;;;;;;;4.53;4.13;;;;;;;20.66;53.32;98989.22;10382395;28;20258;-67
2023/04/28 15:45:18;;;;;;;4.60;4.13;;;;;;;19.89;54.82;98975.47;10376805;28;20243;-70
2023/04/28 15:50:20;;;;;;;5.07;4.57;;;;;;;20.06;53.79;98926.38;10379283;28;20221;-67
2023/04/28 15:55:24;;;;;;;4.63;4.23;;;;;;;18.75;57.37;98934.38;10387372;28;20970;-67
2023/04/28 16:00:26;;;;;;;8.63;4.23;;;;;;;20.15;54.93;99000.00;10375555;28;20708;-70
2023/04/28 16:05:31;;;;;;;4.87;4.07;;;;;;;18.74;57.48;98946.28;10380941;28;20923;-67
2023/04/28 16:10:32;;;;;;;3.93;3.53;;;;;;;19.78;55.43;98954.81;10383797;28;20286;-67
2023/04/28 16:15:34;;;;;;;4.10;3.70;;;;;;;18.91;57.61;98900.06;10385072;28;20663;-67
2023/04/28 16:20:37;;;;;;;4.70;4.13;;;;;;;18.84;57.93;98921.97;10388639;28;20215;-69
2023/04/28 16:25:39;;;;;;;4.83;3.57;;;;;;;20.05;55.68;98937.50;10386334;28;20236;-67
2023/04/28 16:30:41;;;;;;;3.87;3.57;;;;;;;20.47;54.42;98952.81;10390094;28;20743;-69
2023/04/28 16:35:43;;;;;;;3.50;3.20;;;;;;;21.35;53.34;98989.75;10384196;28;20225;-69
2023/04/28 16:40:45;;;;;;;3.60;3.30;;;;;;;20.65;53.67;98899.84;10377464;28;20283;-67
2023/04/28 16:45:46;;;;;;;3.37;2.80;;;;;;;19.87;54.91;98909.78;10382078;28;20557;-69
2023/04/28 16:50:48;;;;;;;4.40;2.80;;;;;;;20.89;53.10;98910.97;10380650;28;20530;-69
2023/04/28 16:55:50;;;;;;;2.50;2.30;;;;;;;20.35;53.51;98854.47;10388226;28;20478;-69
2023/04/28 17:00:51;;;;;;;3.73;2.63;;;;;;;22.08;51.28;98953.03;10382502;28;20223;-69
2023/04/28 17:05:53;;;;;;;2.97;2.50;;;;;;;21.36;52.31;98917.94;10377763;28;20766;-69
2023/04/28 17:10:55;;;;;;;3.63;2.63;;;;;;;21.92;51.35;98940.56;10370933;28;20419;-69
2023/04/28 17:15:57;;;;;;;2.40;2.20;;;;;;;21.79;51.87;98899.22;10379623;28;20224;-69
2023/04/28 17:20:59;;;;;;;2.70;2.50;;;;;;;21.47;51.99;98885.25;10372855;28;20297;-67
2023/04/28 17:26:03;;;;;;;2.33;2.10;;;;;;;21.73;51.40;98870.41;10384849;28;20294;-69
2023/04/28 17:31:04;;;;;;;2.30;2.10;;;;;;;21.67;50.97;98896.03;10382161;28;20326;-67
2023/04/28 17:36:06;;;;;;;2.63;2.43;;;;;;;21.83;50.87;98906.84;10376823;28;20271;-69
2023/04/28 17:41:08;;;;;;;4.80;2.90;;;;;;;21.11;52.08;98869.84;10378546;28;20205;-69
2023/04/28 17:46:11;;;;;;;3.67;2.50;;;;;;;20.09;54.96;98923.13;10378992;28;20227;-69
2023/04/28 17:51:12;;;;;;;2.60;2.30;;;;;;;21.83;50.39;98868.72;10373535;28;20205;-69
2023/04/28 17:56:15;;;;;;;3.73;2.30;;;;;;;21.07;52.01;98876.09;10387835;28;20446;-69
2023/04/28 18:01:17;;;;;;;2.93;2.10;;;;;;;21.78;50.29;98927.56;10376471;28;20218;-69
2023/04/28 18:06:21;;;;;;;2.57;2.30;;;;;;;21.67;50.33;98938.78;10388369;28;20798;-69
2023/04/28 18:11:22;;;;;;;3.20;2.30;;;;;;;21.28;51.45;98931.28;10379191;28;20279;-69
2023/04/28 18:16:25;;;;;;;3.47;2.00;;;;;;;20.25;52.60;98899.53;10376115;28;20228;-68
2023/04/28 18:21:27;;;;;;;2.77;2.20;;;;;;;21.41;50.99;98938.88;10386289;28;20259;-69
2023/04/28 18:26:28;;;;;;;3.87;1.90;;;;;;;20.82;51.68;98903.09;10385279;28;20235;-69
2023/04/28 18:31:30;;;;;;;2.67;2.30;;;;;;;21.31;50.27;98919.84;10380803;28;20651;-69
2023/04/28 18:36:34;;;;;;;3.10;1.80;;;;;;;21.88;49.13;98953.94;10385967;28;20224;-69
2023/04/28 18:41:36;;;;;;;3.10;2.50;;;;;;;21.48;49.77;98961.16;10378415;28;20206;-68
2023/04/28 18:46:38;;;;;;;3.03;2.70;;;;;;;22.49;48.14;98971.03;10378644;28;20236;-69
2023/04/28 18:51:40;;;;;;;4.47;2.53;;;;;;;23.10;46.94;98967.00;10380355;28;20215;-69
2023/04/28 18:56:43;;;;;;;2.10;1.97;;;;;;;20.94;49.44;98926.47;10381422;28;20517;-68
2023/04/28 19:01:46;;;;;;;3.17;2.07;;;;;;;20.45;51.14;98969.38;10376172;28;20336;-68
2023/04/28 19:06:48;;;;;;;2.43;2.23;;;;;;;19.52;52.73;98973.66;10377033;28;20236;-68
2023/04/28 19:11:49;;;;;;;2.57;2.37;;;;;;;19.31;54.17;99081.22;10379681;28;20212;-69
2023/04/28 19:16:51;;;;;;;3.13;1.73;;;;;;;19.22;54.46;99057.56;10381841;28;20509;-69
2023/04/28 19:21:53;;;;;;;2.50;2.30;;;;;;;20.25;52.68;99059.81;10372508;28;20215;-66
2023/04/28 19:26:56;;;;;;;2.30;2.07;;;;;;;20.24;52.41;99024.75;10379439;28;20232;-69
2023/04/28 19:31:58;;;;;;;2.43;2.30;;;;;;;19.25;53.10;98981.94;10379853;28;20216;-68
2023/04/28 19:36:59;;;;;;;3.10;2.67;;;;;;;20.43;51.88;99035.94;10383149;28;20326;-69
2023/04/28 19:42:03;;;;;;;5.27;2.80;;;;;;;21.46;49.00;99034.13;10379820;28;20430;-69
2023/04/28 19:47:06;;;;;;;2.97;2.70;;;;;;;20.65;50.88;99036.53;10375473;28;20250;-69
2023/04/28 19:52:08;;;;;;;5.67;3.33;;;;;;;20.74;51.41;99088.47;10383819;28;20215;-68
2023/04/28 19:57:10;;;;;;;4.33;3.47;;;;;;;21.50;50.39;99035.19;10388806;28;20527;-69
2023/04/28 20:02:12;;;;;;;3.13;2.80;;;;;;;20.43;51.65;99019.63;10388479;28;20473;-69
2023/04/28 20:07:14;;;;;;;3.00;2.80;;;;;;;19.20;54.11;99031.53;10386604;28;20232;-67
2023/04/28 20:12:16;;;;;;;3.90;3.50;;;;;;;21.04;50.85;99013.47;10378380;28;20216;-69
2023/04/28 20:17:18;;;;;;;3.37;3.00;;;;;;;22.04;48.73;99041.84;10389823;28;20327;-69
2023/04/28 20:22:20;;;;;;;4.73;3.10;;;;;;;20.44;51.26;99013.13;10386572;28;20220;-69
2023/04/28 20:27:21;;;;;;;5.13;3.27;;;;;;;21.49;48.82;99011.81;10382085;28;20232;-69
2023/04/28 20:32:23;;;;;;;6.13;3.50;;;;;;;21.35;49.45;99051.50;10385597;28;20347;-69
2023/04/28 20:37:25;;;;;;;5.90;3.30;;;;;;;22.19;48.11;99046.41;10381356;28;20221;-69
2023/04/28 20:42:27;;;;;;;3.70;3.33;;;;;;;21.26;49.06;99056.69;10381249;28;20213;-69
2023/04/28 20:47:29;;;;;;;3.33;3.03;;;;;;;22.77;46.28;99026.72;10386793;28;20248;-69
2023/04/28 20:52:31;;;;;;;4.03;3.47;;;;;;;21.05;49.25;99040.41;10389081;28;20232;-69
2023/04/28 20:57:32;;;;;;;9.67;4.93;;;;;;;21.57;48.60;99052.03;10377724;28;20228;-67
2023/04/28 21:02:34;;;;;;;3.70;3.40;;;;;;;21.29;48.70;99066.22;10384653;28;20241;-69
2023/04/28 21:07:36;;;;;;;3.43;3.03;;;;;;;20.93;49.09;99075.19;10385928;28;20245;-69
2023/04/28 21:12:38;;;;;;;3.00;2.80;;;;;;;20.46;49.21;99049.81;10383836;28;20213;-69
2023/04/28 21:17:40;;;;;;;3.57;3.23;;;;;;;20.84;49.65;99117.59;10381214;28;20228;-69
2023/04/28 21:22:41;;;;;;;3.30;3.00;;;;;;;20.84;48.52;99044.19;10388969;28;20303;-68
2023/04/28 21:27:43;;;;;;;3.33;3.03;;;;;;;19.97;50.32;99071.06;10377075;28;20460;-68
2023/04/28 21:32:45;;;;;;;3.57;3.20;;;;;;;21.60;46.94;99001.69;10393511;28;20445;-69
2023/04/28 21:37:47;;;;;;;4.00;3.67;;;;;;;21.39;47.32;99075.22;10379940;28;20228;-70
2023/04/28 21:42:48;;;;;;;5.13;3.30;;;;;;;21.18;47.81;99073.56;10387200;28;20220;-67
2023/04/28 21:47:50;;;;;;;3.73;3.00;;;;;;;21.24;47.43;99092.34;10372620;28;20228;-67
2023/04/28 21:52:52;;;;;;;3.57;3.27;;;;;;;20.83;48.26;99121.41;10381368;28;20629;-67
2023/04/28 21:57:55;;;;;;;4.03;3.30;;;;;;;21.26;47.34;99037.66;10386683;28;20212;-69
2023/04/28 22:03:00;;;;;;;3.10;2.90;;;;;;;20.30;47.66;99021.78;10380715;28;20244;-67
2023/04/28 22:08:02;;;;;;;3.40;3.10;;;;;;;20.33;48.41;99080.22;10384350;28;20224;-69
2023/04/28 22:13:05;;;;;;;3.07;2.80;;;;;;;20.52;48.06;99058.78;10384076;28;20728;-67
2023/04/28 22:18:07;;;;;;;5.47;3.03;;;;;;;19.09;50.60;99075.91;10379782;28;20615;-67
2023/04/28 22:23:08;;;;;;;3.77;3.03;;;;;;;19.85;49.56;99125.56;10381301;28;20216;-67
2023/04/28 22:28:10;;;;;;;4.93;2.90;;;;;;;19.64;49.35;99092.06;10377367;28;20630;-67
2023/04/28 22:33:12;;;;;;;3.80;3.17;;;;;;;19.59;49.21;99092.84;10375390;28;20283;-67
2023/04/28 22:38:13;;;;;;;3.53;3.23;;;;;;;20.88;47.10;99102.38;10382181;28;20209;-69
2023/04/28 22:43:15;;;;;;;4.80;3.60;;;;;;;19.88;48.95;99125.88;10379481;28;20224;-69
2023/04/28 22:48:17;;;;;;;3.77;2.87;;;;;;;19.83;48.94;99116.88;10386615;28;20447;-67
2023/04/28 22:53:19;;;;;;;3.20;2.90;;;;;;;20.58;47.04;99094.94;10374568;28;20224;-67
2023/04/28 22:58:20;;;;;;;8.03;4.17;;;;;;;18.89;49.99;99068.38;10378393;28;20217;-69
2023/04/28 23:03:22;;;;;;;3.60;3.30;;;;;;;19.53;48.16;99059.41;10378287;28;20233;-69
2023/04/28 23:08:24;;;;;;;4.17;3.77;;;;;;;19.88;48.02;99076.19;10381669;28;20206;-69
2023/04/28 23:13:26;;;;;;;4.80;3.57;;;;;;;21.15;46.56;99098.59;10382462;28;20634;-69
2023/04/28 23:18:30;;;;;;;6.17;3.83;;;;;;;19.86;47.56;99072.94;10379858;28;20208;-68
2023/04/28 23:23:32;;;;;;;4.83;4.33;;;;;;;20.40;47.36;99099.78;10385157;28;20232;-69
2023/04/28 23:28:33;;;;;;;5.97;4.33;;;;;;;20.78;46.32;99094.22;10377120;28;20681;-69